createdAt,value
2018-05-24T00:00:14.368Z,0.00
2018-05-24T00:01:14.204Z,0.00
2018-05-24T00:02:14.187Z,0.00
2018-05-24T00:03:14.083Z,0.00
2018-05-24T00:04:14.001Z,0.00
2018-05-24T00:05:13.883Z,0.00
2018-05-24T00:06:13.903Z,0.00
2018-05-24T00:07:13.742Z,0.00
2018-05-24T00:08:13.712Z,0.00
2018-05-24T00:09:13.565Z,0.00
2018-05-24T00:10:13.612Z,0.00
2018-05-24T00:11:13.411Z,0.00
2018-05-24T00:12:13.470Z,0.00
2018-05-24T00:13:13.247Z,0.00
2018-05-24T00:15:55.344Z,0.00
2018-05-24T00:16:55.363Z,0.00
2018-05-24T00:17:55.187Z,0.00
2018-05-24T00:18:55.237Z,0.00
2018-05-24T00:19:55.035Z,0.00
2018-05-24T00:20:55.051Z,0.00
2018-05-24T00:21:54.885Z,0.00
2018-05-24T00:22:54.884Z,0.00
2018-05-24T00:23:54.722Z,0.00
2018-05-24T00:24:54.771Z,0.00
2018-05-24T00:25:54.574Z,0.00
2018-05-24T00:28:36.865Z,0.00
2018-05-24T00:29:36.888Z,0.00
2018-05-24T00:30:36.702Z,0.00
2018-05-24T00:33:18.868Z,0.00
2018-05-24T00:34:18.891Z,0.00
2018-05-24T00:35:18.686Z,0.00
2018-05-24T00:36:18.723Z,0.00
2018-05-24T00:37:18.542Z,0.00
2018-05-24T00:38:18.530Z,0.00
2018-05-24T00:39:18.379Z,0.00
2018-05-24T00:40:18.420Z,0.00
2018-05-24T00:41:18.225Z,0.00
2018-05-24T00:42:18.228Z,0.00
2018-05-24T00:43:18.088Z,0.00
2018-05-24T00:44:18.061Z,0.00
2018-05-24T00:45:17.920Z,0.00
2018-05-24T00:46:17.949Z,0.00
2018-05-24T00:47:17.775Z,0.00
2018-05-24T00:49:59.868Z,0.00
2018-05-24T00:50:59.866Z,0.00
2018-05-24T00:51:59.699Z,0.00
2018-05-24T00:52:59.662Z,0.00
2018-05-24T00:53:59.560Z,0.00
2018-05-24T00:54:59.568Z,0.00
2018-05-24T00:55:59.393Z,0.00
2018-05-24T00:56:59.377Z,0.00
2018-05-24T00:57:59.279Z,0.00
2018-05-24T00:58:59.240Z,0.00
2018-05-24T00:59:59.075Z,0.00
2018-05-24T01:00:59.100Z,0.00
2018-05-24T01:01:58.914Z,0.00
2018-05-24T01:02:58.905Z,0.00
2018-05-24T01:03:58.785Z,0.00
2018-05-24T01:04:58.746Z,0.00
2018-05-24T01:05:58.620Z,0.00
2018-05-24T01:06:58.625Z,0.00
2018-05-24T01:07:58.461Z,0.00
2018-05-24T01:08:58.438Z,0.00
2018-05-24T01:09:58.316Z,0.00
2018-05-24T01:10:58.339Z,0.00
2018-05-24T01:11:58.142Z,0.00
2018-05-24T01:12:58.165Z,0.00
2018-05-24T01:13:57.997Z,0.00
2018-05-24T01:14:57.992Z,0.00
2018-05-24T01:15:57.832Z,0.00
2018-05-24T01:16:57.878Z,0.00
2018-05-24T01:17:57.711Z,0.00
2018-05-24T01:18:57.687Z,0.00
2018-05-24T01:19:57.585Z,0.00
2018-05-24T01:20:57.500Z,0.00
2018-05-24T01:21:57.358Z,0.00
2018-05-24T01:22:57.414Z,0.00
2018-05-24T01:23:57.212Z,0.00
2018-05-24T01:24:57.238Z,0.00
2018-05-24T01:25:57.083Z,0.00
2018-05-24T01:28:39.367Z,0.00
2018-05-24T01:29:39.336Z,0.00
2018-05-24T01:30:39.230Z,0.00
2018-05-24T01:31:39.264Z,0.00
2018-05-24T01:32:39.048Z,0.00
2018-05-24T01:33:39.055Z,0.00
2018-05-24T01:34:38.906Z,0.00
2018-05-24T01:35:38.886Z,0.00
2018-05-24T01:36:38.761Z,0.00
2018-05-24T01:37:38.779Z,0.00
2018-05-24T01:38:38.585Z,0.00
2018-05-24T01:41:20.890Z,0.00
2018-05-24T01:42:20.874Z,0.00
2018-05-24T01:43:20.704Z,0.00
2018-05-24T01:44:20.682Z,0.00
2018-05-24T01:45:20.554Z,0.00
2018-05-24T01:46:20.630Z,0.00
2018-05-24T01:47:20.400Z,0.00
2018-05-24T01:48:20.401Z,0.00
2018-05-24T01:49:20.242Z,0.00
2018-05-24T01:52:02.396Z,0.00
2018-05-24T01:53:19.950Z,0.00
2018-05-24T01:54:02.211Z,0.00
2018-05-24T01:55:02.242Z,0.00
2018-05-24T01:56:02.086Z,0.00
2018-05-24T01:57:02.059Z,0.00
2018-05-24T01:58:01.922Z,0.00
2018-05-24T01:59:01.956Z,0.00
2018-05-24T02:00:01.753Z,0.00
2018-05-24T02:01:01.754Z,0.00
2018-05-24T02:02:01.633Z,0.00
2018-05-24T02:03:01.591Z,0.00
2018-05-24T02:04:01.450Z,0.00
2018-05-24T02:05:01.471Z,0.00
2018-05-24T02:06:01.279Z,0.00
2018-05-24T02:07:01.312Z,0.00
2018-05-24T02:08:01.121Z,0.00
2018-05-24T02:09:01.082Z,0.00
2018-05-24T02:10:00.984Z,0.00
2018-05-24T02:11:00.997Z,0.00
2018-05-24T02:12:00.853Z,0.00
2018-05-24T02:13:00.812Z,0.00
2018-05-24T02:14:00.664Z,0.00
2018-05-24T02:15:00.623Z,0.00
2018-05-24T02:16:00.508Z,0.00
2018-05-24T02:17:00.545Z,0.00
2018-05-24T02:18:00.380Z,0.00
2018-05-24T02:19:00.340Z,0.00
2018-05-24T02:20:00.188Z,0.00
2018-05-24T02:21:00.160Z,0.00
2018-05-24T02:22:00.052Z,0.00
2018-05-24T02:23:00.096Z,0.00
2018-05-24T02:23:59.913Z,0.00
2018-05-24T02:24:59.863Z,0.00
2018-05-24T02:25:59.783Z,0.00
2018-05-24T02:26:59.775Z,0.00
2018-05-24T02:27:59.592Z,0.00
2018-05-24T02:28:59.656Z,0.00
2018-05-24T02:29:59.415Z,0.00
2018-05-24T02:32:41.378Z,0.00
2018-05-24T02:33:42.442Z,0.00
2018-05-24T02:34:41.227Z,0.00
2018-05-24T02:35:41.208Z,0.00
2018-05-24T02:36:41.079Z,0.00
2018-05-24T02:37:41.111Z,0.00
2018-05-24T02:38:40.952Z,0.00
2018-05-24T02:41:22.907Z,0.00
2018-05-24T02:44:04.968Z,0.00
2018-05-24T02:45:04.948Z,0.00
2018-05-24T02:46:04.735Z,0.00
2018-05-24T02:47:04.727Z,0.00
2018-05-24T02:48:04.601Z,0.00
2018-05-24T02:49:04.530Z,0.00
2018-05-24T02:50:04.447Z,0.00
2018-05-24T02:51:04.447Z,0.00
2018-05-24T02:52:04.299Z,0.00
2018-05-24T02:53:04.238Z,0.00
2018-05-24T02:54:04.111Z,0.00
2018-05-24T02:55:04.076Z,0.00
2018-05-24T02:56:03.954Z,0.00
2018-05-24T02:57:03.971Z,0.00
2018-05-24T02:58:03.804Z,0.00
2018-05-24T02:59:03.772Z,0.00
2018-05-24T03:00:03.664Z,0.00
2018-05-24T03:01:04.651Z,0.00
2018-05-24T03:02:03.479Z,0.00
2018-05-24T03:03:03.486Z,0.00
2018-05-24T03:04:03.345Z,0.00
2018-05-24T03:05:03.299Z,4.00
2018-05-24T03:06:03.183Z,4.00
2018-05-24T03:08:45.429Z,4.00
2018-05-24T03:09:45.420Z,0.00
2018-05-24T03:10:45.256Z,0.00
2018-05-24T03:11:45.221Z,0.00
2018-05-24T03:12:45.081Z,0.00
2018-05-24T03:13:45.138Z,4.00
2018-05-24T03:14:44.929Z,4.00
2018-05-24T03:17:26.924Z,8.00
2018-05-24T03:20:08.989Z,12.00
2018-05-24T03:21:08.930Z,16.00
2018-05-24T03:22:08.737Z,16.00
2018-05-24T03:23:08.784Z,16.00
2018-05-24T03:24:08.614Z,16.00
2018-05-24T03:25:08.551Z,16.00
2018-05-24T03:26:08.426Z,20.00
2018-05-24T03:27:08.463Z,24.00
2018-05-24T03:28:08.270Z,24.00
2018-05-24T03:29:08.300Z,32.00
2018-05-24T03:30:08.116Z,40.00
2018-05-24T03:31:08.079Z,44.00
2018-05-24T03:32:07.977Z,48.00
2018-05-24T03:33:07.991Z,52.00
2018-05-24T03:34:07.804Z,60.00
2018-05-24T03:35:07.904Z,64.00
2018-05-24T03:36:07.649Z,68.00
2018-05-24T03:37:07.604Z,72.00
2018-05-24T03:38:07.483Z,84.00
2018-05-24T03:39:07.513Z,96.00
2018-05-24T03:40:07.356Z,108.00
2018-05-24T03:41:07.328Z,120.00
2018-05-24T03:42:07.177Z,128.00
2018-05-24T03:43:07.138Z,132.00
2018-05-24T03:44:07.038Z,124.00
2018-05-24T03:45:07.043Z,120.00
2018-05-24T03:46:06.890Z,120.00
2018-05-24T03:47:06.853Z,124.00
2018-05-24T03:48:06.714Z,136.00
2018-05-24T03:49:06.660Z,144.00
2018-05-24T03:50:06.586Z,144.00
2018-05-24T03:51:06.611Z,144.00
2018-05-24T03:52:06.480Z,148.00
2018-05-24T03:53:29.999Z,148.00
2018-05-24T03:54:06.242Z,148.00
2018-05-24T03:55:06.296Z,152.00
2018-05-24T03:56:06.123Z,160.00
2018-05-24T03:57:06.105Z,160.00
2018-05-24T03:58:05.935Z,156.00
2018-05-24T03:59:05.906Z,148.00
2018-05-24T04:00:05.779Z,136.00
2018-05-24T04:01:05.746Z,128.00
2018-05-24T04:02:05.618Z,124.00
2018-05-24T04:03:05.623Z,124.00
2018-05-24T04:04:05.469Z,120.00
2018-05-24T04:05:05.437Z,124.00
2018-05-24T04:06:05.331Z,116.00
2018-05-24T04:07:05.285Z,112.00
2018-05-24T04:08:05.155Z,112.00
2018-05-24T04:09:05.153Z,108.00
2018-05-24T04:10:05.002Z,104.00
2018-05-24T04:11:04.977Z,96.00
2018-05-24T04:12:04.866Z,96.00
2018-05-24T04:13:04.873Z,96.00
2018-05-24T04:14:04.719Z,100.00
2018-05-24T04:15:04.679Z,104.00
2018-05-24T04:16:04.527Z,108.00
2018-05-24T04:17:04.492Z,112.00
2018-05-24T04:18:04.365Z,108.00
2018-05-24T04:19:04.439Z,108.00
2018-05-24T04:20:04.205Z,112.00
2018-05-24T04:21:04.202Z,124.00
2018-05-24T04:22:04.053Z,148.00
2018-05-24T04:23:04.058Z,168.00
2018-05-24T04:24:03.903Z,168.00
2018-05-24T04:25:03.933Z,152.00
2018-05-24T04:26:03.747Z,132.00
2018-05-24T04:27:04.804Z,120.00
2018-05-24T04:28:03.587Z,104.00
2018-05-24T04:29:03.566Z,88.00
2018-05-24T04:30:03.437Z,84.00
2018-05-24T04:31:03.468Z,80.00
2018-05-24T04:32:03.270Z,80.00
2018-05-24T04:33:03.358Z,80.00
2018-05-24T04:34:03.135Z,80.00
2018-05-24T04:35:03.079Z,84.00
2018-05-24T04:36:02.959Z,88.00
2018-05-24T04:37:02.991Z,100.00
2018-05-24T04:38:02.815Z,128.00
2018-05-24T04:39:02.830Z,164.00
2018-05-24T04:40:02.638Z,200.00
2018-05-24T04:41:02.603Z,240.00
2018-05-24T04:42:02.485Z,248.00
2018-05-24T04:43:02.514Z,252.00
2018-05-24T04:44:02.354Z,300.00
2018-05-24T04:45:02.327Z,368.00
2018-05-24T04:46:02.185Z,444.00
2018-05-24T04:47:02.133Z,540.00
2018-05-24T04:48:02.023Z,628.00
2018-05-24T04:49:02.075Z,800.00
2018-05-24T04:50:01.871Z,956.00
2018-05-24T04:51:01.856Z,1100.00
2018-05-24T04:52:01.697Z,1220.00
2018-05-24T04:53:01.656Z,1328.00
2018-05-24T04:54:01.644Z,1428.00
2018-05-24T04:55:01.608Z,1512.00
2018-05-24T04:56:01.385Z,1456.00
2018-05-24T04:57:01.380Z,1360.00
2018-05-24T04:58:01.230Z,1260.00
2018-05-24T04:59:02.246Z,1136.00
2018-05-24T05:00:01.090Z,1028.00
2018-05-24T05:01:01.106Z,900.00
2018-05-24T05:02:00.926Z,764.00
2018-05-24T05:04:43.095Z,488.00
2018-05-24T05:05:42.904Z,420.00
2018-05-24T05:06:42.769Z,364.00
2018-05-24T05:07:42.810Z,320.00
2018-05-24T05:08:42.613Z,292.00
2018-05-24T05:11:24.452Z,264.00
2018-05-24T05:12:24.411Z,276.00
2018-05-24T05:13:24.272Z,308.00
2018-05-24T05:14:24.229Z,348.00
2018-05-24T05:15:24.135Z,408.00
2018-05-24T05:18:05.931Z,600.00
2018-05-24T05:19:05.924Z,664.00
2018-05-24T05:20:05.822Z,736.00
2018-05-24T05:21:05.734Z,800.00
2018-05-24T05:22:05.616Z,868.00
2018-05-24T05:23:37.511Z,916.00
2018-05-24T05:24:05.457Z,916.00
2018-05-24T05:25:06.539Z,872.00
2018-05-24T05:26:05.302Z,820.00
2018-05-24T05:27:05.263Z,784.00
2018-05-24T05:28:05.141Z,772.00
2018-05-24T05:29:05.172Z,780.00
2018-05-24T05:30:05.006Z,796.00
2018-05-24T05:31:05.026Z,780.00
2018-05-24T05:32:04.832Z,784.00
2018-05-24T05:33:04.793Z,788.00
2018-05-24T05:34:04.671Z,812.00
2018-05-24T05:35:04.698Z,824.00
2018-05-24T05:36:04.538Z,836.00
2018-05-24T05:38:46.438Z,808.00
2018-05-24T05:39:46.423Z,764.00
2018-05-24T05:40:46.354Z,744.00
2018-05-24T05:41:47.269Z,736.00
2018-05-24T05:42:46.128Z,736.00
2018-05-24T05:43:46.128Z,732.00
2018-05-24T05:44:46.039Z,732.00
2018-05-24T05:45:45.949Z,732.00
2018-05-24T05:46:45.859Z,756.00
2018-05-24T05:47:45.841Z,796.00
2018-05-24T05:48:45.649Z,824.00
2018-05-24T05:49:45.650Z,856.00
2018-05-24T05:50:45.497Z,864.00
2018-05-24T05:51:45.499Z,884.00
2018-05-24T05:52:45.329Z,968.00
2018-05-24T05:53:45.362Z,1096.00
2018-05-24T05:54:45.185Z,1168.00
2018-05-24T05:57:27.460Z,1280.00
2018-05-24T05:58:27.495Z,1260.00
2018-05-24T05:59:27.288Z,1236.00
2018-05-24T06:00:27.295Z,1224.00
2018-05-24T06:01:27.158Z,1268.00
2018-05-24T06:02:27.096Z,1384.00
2018-05-24T06:03:26.966Z,1492.00
2018-05-24T06:04:27.026Z,1604.00
2018-05-24T06:05:26.810Z,1756.00
2018-05-24T06:06:26.824Z,1948.00
2018-05-24T06:07:26.706Z,2492.00
2018-05-24T06:08:26.624Z,3340.00
2018-05-24T06:09:26.496Z,4256.00
2018-05-24T06:10:26.552Z,5012.00
2018-05-24T06:11:26.385Z,5420.00
2018-05-24T06:12:26.376Z,5608.00
2018-05-24T06:13:26.189Z,5716.00
2018-05-24T06:14:26.172Z,5748.00
2018-05-24T06:15:26.034Z,5828.00
2018-05-24T06:18:07.959Z,5140.00
2018-05-24T06:20:49.952Z,3500.00
2018-05-24T06:21:49.996Z,2992.00
2018-05-24T06:22:49.786Z,3016.00
2018-05-24T06:23:49.764Z,3000.00
2018-05-24T06:24:49.639Z,2780.00
2018-05-24T06:25:49.687Z,2848.00
2018-05-24T06:26:49.506Z,2800.00
2018-05-24T06:27:49.535Z,2724.00
2018-05-24T06:28:49.312Z,2708.00
2018-05-24T06:29:49.298Z,2508.00
2018-05-24T06:33:13.474Z,3356.00
2018-05-24T06:34:13.488Z,3252.00
2018-05-24T06:35:13.324Z,3008.00
2018-05-24T06:37:55.477Z,2292.00
2018-05-24T06:38:55.498Z,2344.00
2018-05-24T06:39:55.300Z,3008.00
2018-05-24T06:40:55.313Z,3944.00
2018-05-24T06:41:55.134Z,4564.00
2018-05-24T06:42:55.179Z,5056.00
2018-05-24T06:43:54.980Z,5252.00
2018-05-24T06:46:36.945Z,5680.00
2018-05-24T06:47:37.986Z,5976.00
2018-05-24T06:48:36.795Z,5436.00
2018-05-24T06:49:36.834Z,5104.00
2018-05-24T06:50:36.641Z,5196.00
2018-05-24T06:51:36.642Z,5248.00
2018-05-24T06:52:36.513Z,5156.00
2018-05-24T06:53:36.488Z,4884.00
2018-05-24T06:54:36.379Z,4480.00
2018-05-24T06:55:36.362Z,4092.00
2018-05-24T06:56:36.174Z,3744.00
2018-05-24T06:57:36.173Z,3316.00
2018-05-24T06:58:36.011Z,3256.00
2018-05-24T06:59:35.999Z,3284.00
2018-05-24T07:00:35.863Z,3244.00
2018-05-24T07:03:17.963Z,2304.00
2018-05-24T07:04:18.027Z,2236.00
2018-05-24T07:05:17.870Z,2128.00
2018-05-24T07:07:59.961Z,2068.00
2018-05-24T07:09:00.960Z,2208.00
2018-05-24T07:09:59.824Z,2308.00
2018-05-24T07:10:59.881Z,2380.00
2018-05-24T07:11:59.651Z,2408.00
2018-05-24T07:12:59.646Z,2248.00
2018-05-24T07:13:59.486Z,2188.00
2018-05-24T07:14:59.556Z,2492.00
2018-05-24T07:15:59.340Z,2960.00
2018-05-24T07:16:59.330Z,3372.00
2018-05-24T07:17:59.182Z,3892.00
2018-05-24T07:18:59.195Z,4456.00
2018-05-24T07:19:59.038Z,5000.00
2018-05-24T07:20:59.052Z,5508.00
2018-05-24T07:21:58.895Z,5904.00
2018-05-24T07:22:58.863Z,6212.00
2018-05-24T07:23:58.729Z,6580.00
2018-05-24T07:24:58.683Z,7092.00
2018-05-24T07:25:58.574Z,7884.00
2018-05-24T07:26:58.587Z,8880.00
2018-05-24T07:27:58.399Z,9760.00
2018-05-24T07:28:58.420Z,10572.00
2018-05-24T07:29:58.237Z,11144.00
2018-05-24T07:31:14.279Z,11536.00
2018-05-24T07:31:58.080Z,11624.00
2018-05-24T07:32:58.106Z,11700.00
2018-05-24T07:33:57.948Z,11828.00
2018-05-24T07:34:57.917Z,11892.00
2018-05-24T07:35:57.763Z,11912.00
2018-05-24T07:36:57.722Z,12000.00
2018-05-24T07:37:57.737Z,11972.00
2018-05-24T07:38:57.632Z,11724.00
2018-05-24T07:39:57.487Z,11424.00
2018-05-24T07:40:57.486Z,11484.00
2018-05-24T07:41:57.301Z,11492.00
2018-05-24T07:42:57.261Z,11664.00
2018-05-24T07:43:57.153Z,12320.00
2018-05-24T07:44:57.212Z,13112.00
2018-05-24T07:45:57.017Z,14596.00
2018-05-24T07:46:56.962Z,15368.00
2018-05-24T07:47:56.835Z,15576.00
2018-05-24T07:48:56.781Z,15680.00
2018-05-24T07:49:56.691Z,15616.00
2018-05-24T07:50:56.740Z,15180.00
2018-05-24T07:51:56.582Z,14712.00
2018-05-24T07:53:49.555Z,14104.00
2018-05-24T07:53:56.372Z,13644.00
2018-05-24T07:54:56.407Z,13300.00
2018-05-24T07:55:56.240Z,13024.00
2018-05-24T07:56:57.285Z,12884.00
2018-05-24T07:57:56.071Z,12852.00
2018-05-24T07:58:56.032Z,12892.00
2018-05-24T07:59:55.902Z,12944.00
2018-05-24T08:00:55.943Z,12972.00
2018-05-24T08:01:55.767Z,12944.00
2018-05-24T08:04:38.001Z,13136.00
2018-05-24T08:05:37.942Z,13572.00
2018-05-24T08:06:37.819Z,14572.00
2018-05-24T08:07:37.798Z,16768.00
2018-05-24T08:08:37.670Z,18656.00
2018-05-24T08:09:37.667Z,20960.00
2018-05-24T08:10:37.522Z,21248.00
2018-05-24T08:11:37.516Z,23168.00
2018-05-24T08:12:37.381Z,25344.00
2018-05-24T08:13:37.383Z,27392.00
2018-05-24T08:14:37.216Z,30304.00
2018-05-24T08:15:37.186Z,29024.00
2018-05-24T08:16:38.003Z,30688.00
2018-05-24T08:17:37.006Z,35424.00
2018-05-24T08:18:36.896Z,30848.00
2018-05-24T08:19:36.909Z,29056.00
2018-05-24T08:20:36.752Z,27168.00
2018-05-24T08:21:36.764Z,21984.00
2018-05-24T08:22:36.691Z,20832.00
2018-05-24T08:23:36.632Z,21792.00
2018-05-24T08:24:36.440Z,22112.00
2018-05-24T08:25:36.440Z,20672.00
2018-05-24T08:26:36.285Z,20672.00
2018-05-24T08:27:36.281Z,20224.00
2018-05-24T08:28:36.146Z,19648.00
2018-05-24T08:31:18.000Z,21152.00
2018-05-24T08:32:18.024Z,23008.00
2018-05-24T08:33:17.843Z,23232.00
2018-05-24T08:34:17.872Z,22624.00
2018-05-24T08:35:17.695Z,21248.00
2018-05-24T08:36:17.678Z,19904.00
2018-05-24T08:37:17.577Z,19168.00
2018-05-24T08:38:17.607Z,18976.00
2018-05-24T08:39:17.400Z,18848.00
2018-05-24T08:40:17.406Z,18784.00
2018-05-24T08:41:17.243Z,18784.00
2018-05-24T08:42:17.243Z,18848.00
2018-05-24T08:43:17.100Z,18688.00
2018-05-24T08:44:17.109Z,17824.00
2018-05-24T08:45:16.938Z,16608.00
2018-05-24T08:46:16.931Z,15220.00
2018-05-24T08:47:16.803Z,14324.00
2018-05-24T08:48:16.791Z,13720.00
2018-05-24T08:49:16.670Z,13184.00
2018-05-24T08:51:58.492Z,13460.00
2018-05-24T08:52:58.531Z,13860.00
2018-05-24T08:53:58.371Z,14360.00
2018-05-24T08:54:58.360Z,14940.00
2018-05-24T08:55:58.210Z,15552.00
2018-05-24T08:56:58.187Z,16276.00
2018-05-24T08:57:58.041Z,17216.00
2018-05-24T08:58:58.108Z,17920.00
2018-05-24T08:59:57.911Z,18496.00
2018-05-24T09:00:57.872Z,19200.00
2018-05-24T09:01:57.751Z,19712.00
2018-05-24T09:04:40.017Z,18784.00
2018-05-24T09:05:39.979Z,18048.00
2018-05-24T09:06:39.849Z,17408.00
2018-05-24T09:07:39.891Z,16176.00
2018-05-24T09:08:39.706Z,14672.00
2018-05-24T09:09:39.730Z,13256.00
2018-05-24T09:10:39.562Z,12340.00
2018-05-24T09:11:39.509Z,12000.00
2018-05-24T09:12:39.404Z,11800.00
2018-05-24T09:13:39.421Z,11592.00
2018-05-24T09:14:39.273Z,11488.00
2018-05-24T09:15:39.228Z,11216.00
2018-05-24T09:16:39.104Z,11208.00
2018-05-24T09:17:39.138Z,11340.00
2018-05-24T09:18:39.061Z,11784.00
2018-05-24T09:19:38.987Z,12800.00
2018-05-24T09:20:38.836Z,12600.00
2018-05-24T09:21:38.821Z,12696.00
2018-05-24T09:22:38.652Z,12948.00
2018-05-24T09:23:38.686Z,13292.00
2018-05-24T09:24:38.520Z,13540.00
2018-05-24T09:25:38.477Z,13328.00
2018-05-24T09:26:38.343Z,13088.00
2018-05-24T09:27:38.387Z,12736.00
2018-05-24T09:28:38.209Z,12316.00
2018-05-24T09:29:38.149Z,12152.00
2018-05-24T09:30:38.064Z,11912.00
2018-05-24T09:31:38.002Z,11656.00
2018-05-24T09:32:37.900Z,11348.00
2018-05-24T09:35:20.086Z,11504.00
2018-05-24T09:36:20.140Z,11776.00
2018-05-24T09:37:19.864Z,12140.00
2018-05-24T09:38:19.821Z,12572.00
2018-05-24T09:39:19.706Z,13024.00
2018-05-24T09:40:20.704Z,13496.00
2018-05-24T09:41:19.591Z,14060.00
2018-05-24T09:42:19.624Z,14536.00
2018-05-24T09:43:19.396Z,15000.00
2018-05-24T09:44:19.361Z,15720.00
2018-05-24T09:45:19.264Z,17056.00
2018-05-24T09:46:20.224Z,18752.00
2018-05-24T09:47:19.105Z,23392.00
2018-05-24T09:48:19.069Z,18560.00
2018-05-24T09:49:18.963Z,18752.00
2018-05-24T09:52:01.046Z,17888.00
2018-05-24T09:53:00.975Z,17728.00
2018-05-24T09:54:00.857Z,17792.00
2018-05-24T09:55:00.903Z,18176.00
2018-05-24T09:56:00.737Z,19072.00
2018-05-24T09:57:00.761Z,20160.00
2018-05-24T09:58:00.551Z,21728.00
2018-05-24T10:00:42.513Z,52672.00
2018-05-24T10:01:42.568Z,52832.00
2018-05-24T10:02:42.397Z,39456.00
2018-05-24T10:03:42.428Z,39072.00
2018-05-24T10:04:42.229Z,42112.00
2018-05-24T10:05:42.233Z,35872.00
2018-05-24T10:06:42.070Z,32288.00
2018-05-24T10:07:42.053Z,32448.00
2018-05-24T10:08:41.945Z,34432.00
2018-05-24T10:11:24.042Z,37088.00
2018-05-24T10:12:24.080Z,33344.00
2018-05-24T10:13:23.883Z,39424.00
2018-05-24T10:14:23.850Z,41088.00
2018-05-24T10:15:23.722Z,40832.00
2018-05-24T10:16:23.796Z,59040.00
2018-05-24T10:17:23.579Z,36864.00
2018-05-24T10:18:23.602Z,34912.00
2018-05-24T10:19:23.437Z,29344.00
2018-05-24T10:20:23.494Z,29536.00
2018-05-24T10:21:23.304Z,30272.00
2018-05-24T10:22:24.412Z,30432.00
2018-05-24T10:23:23.256Z,33952.00
2018-05-24T10:26:05.048Z,42304.00
2018-05-24T10:27:04.993Z,41120.00
2018-05-24T10:28:04.904Z,37152.00
2018-05-24T10:30:47.025Z,39424.00
2018-05-24T10:31:47.004Z,32160.00
2018-05-24T10:32:46.921Z,35360.00
2018-05-24T10:33:46.821Z,32480.00
2018-05-24T10:34:46.736Z,41024.00
2018-05-24T10:35:46.735Z,43200.00
2018-05-24T10:36:46.590Z,43232.00
2018-05-24T10:37:46.636Z,35968.00
2018-05-24T10:38:46.478Z,68736.00
2018-05-24T10:39:46.443Z,54528.00
2018-05-24T10:40:46.302Z,77088.00
2018-05-24T10:41:46.360Z,58432.00
2018-05-24T10:42:46.199Z,58528.00
2018-05-24T10:43:46.187Z,65568.00
2018-05-24T10:44:46.046Z,65248.00
2018-05-24T10:45:46.071Z,44000.00
2018-05-24T10:46:45.884Z,41568.00
2018-05-24T10:47:45.884Z,45856.00
2018-05-24T10:48:45.771Z,55168.00
2018-05-24T10:49:45.799Z,77568.00
2018-05-24T10:50:45.611Z,68608.00
2018-05-24T10:51:45.616Z,49440.00
2018-05-24T10:52:45.449Z,45248.00
2018-05-24T10:53:45.534Z,50016.00
2018-05-24T10:54:45.306Z,45216.00
2018-05-24T10:55:45.337Z,43680.00
2018-05-24T10:56:45.219Z,37152.00
2018-05-24T10:59:27.148Z,34624.00
2018-05-24T11:00:26.971Z,28064.00
2018-05-24T11:01:26.894Z,28480.00
2018-05-24T11:02:27.024Z,38080.00
2018-05-24T11:03:26.850Z,37728.00
2018-05-24T11:04:26.772Z,55840.00
2018-05-24T11:05:26.617Z,56256.00
2018-05-24T11:06:26.772Z,62528.00
2018-05-24T11:07:26.476Z,61920.00
2018-05-24T11:08:26.464Z,63488.00
2018-05-24T11:09:26.345Z,62144.00
2018-05-24T11:10:26.404Z,55360.00
2018-05-24T11:11:26.193Z,68672.00
2018-05-24T11:12:26.184Z,60896.00
2018-05-24T11:13:26.061Z,62912.00
2018-05-24T11:14:26.088Z,71296.00
2018-05-24T11:15:25.948Z,71552.00
2018-05-24T11:18:08.051Z,63840.00
2018-05-24T11:19:08.106Z,65824.00
2018-05-24T11:20:07.945Z,63648.00
2018-05-24T11:21:07.918Z,63136.00
2018-05-24T11:22:07.771Z,63168.00
2018-05-24T11:23:07.822Z,68256.00
2018-05-24T11:24:07.627Z,69472.00
2018-05-24T11:25:08.716Z,70176.00
2018-05-24T11:26:07.493Z,71776.00
2018-05-24T11:27:07.567Z,71744.00
2018-05-24T11:28:07.352Z,66944.00
2018-05-24T11:29:07.356Z,62080.00
2018-05-24T11:30:07.253Z,60768.00
2018-05-24T11:31:07.270Z,51616.00
2018-05-24T11:32:07.254Z,52928.00
2018-05-24T11:33:07.058Z,53952.00
2018-05-24T11:34:06.960Z,59584.00
2018-05-24T11:35:06.992Z,60736.00
2018-05-24T11:36:06.845Z,56928.00
2018-05-24T11:37:06.831Z,49280.00
2018-05-24T11:38:06.680Z,28832.00
2018-05-24T11:39:06.708Z,34624.00
2018-05-24T11:40:06.550Z,36512.00
2018-05-24T11:41:06.640Z,38144.00
2018-05-24T11:42:06.446Z,45952.00
2018-05-24T11:43:06.525Z,44160.00
2018-05-24T11:44:06.273Z,49024.00
2018-05-24T11:45:06.243Z,38496.00
2018-05-24T11:46:06.139Z,31616.00
2018-05-24T11:47:06.097Z,29472.00
2018-05-24T11:48:06.015Z,35232.00
2018-05-24T11:49:05.967Z,28544.00
2018-05-24T11:50:05.878Z,28032.00
2018-05-24T11:51:06.202Z,22880.00
2018-05-24T11:52:05.827Z,20320.00
2018-05-24T11:53:07.353Z,18944.00
2018-05-24T11:54:05.631Z,18304.00
2018-05-24T11:55:07.541Z,17728.00
2018-05-24T11:56:05.474Z,17152.00
2018-05-24T11:57:07.640Z,17024.00
2018-05-24T11:58:05.345Z,17184.00
2018-05-24T11:59:07.750Z,17536.00
2018-05-24T12:00:05.202Z,18592.00
2018-05-24T12:02:51.123Z,21728.00
2018-05-24T12:03:51.133Z,21728.00
2018-05-24T12:04:50.924Z,21344.00
2018-05-24T12:07:33.069Z,17312.00
2018-05-24T12:08:33.140Z,16568.00
2018-05-24T12:09:32.917Z,16464.00
2018-05-24T12:10:32.917Z,16380.00
2018-05-24T12:11:32.782Z,15996.00
2018-05-24T12:12:32.827Z,15248.00
2018-05-24T12:13:32.659Z,14648.00
2018-05-24T12:16:14.586Z,13584.00
2018-05-24T12:17:14.521Z,13892.00
2018-05-24T12:18:14.438Z,15192.00
2018-05-24T12:19:14.428Z,16852.00
2018-05-24T12:20:14.279Z,17108.00
2018-05-24T12:21:14.242Z,15844.00
2018-05-24T12:22:14.131Z,14860.00
2018-05-24T12:23:14.149Z,14680.00
2018-05-24T12:24:14.126Z,16316.00
2018-05-24T12:25:14.037Z,17396.00
2018-05-24T12:26:13.845Z,18624.00
2018-05-24T12:27:13.877Z,19072.00
2018-05-24T12:28:13.697Z,19744.00
2018-05-24T12:29:13.804Z,19104.00
2018-05-24T12:30:13.547Z,19776.00
2018-05-24T12:31:13.599Z,18752.00
2018-05-24T12:32:13.411Z,21792.00
2018-05-24T12:33:13.403Z,22592.00
2018-05-24T12:34:13.290Z,19488.00
2018-05-24T12:35:13.362Z,18496.00
2018-05-24T12:36:13.111Z,18208.00
2018-05-24T12:37:13.125Z,18272.00
2018-05-24T12:38:12.977Z,17060.00
2018-05-24T12:39:13.063Z,16332.00
2018-05-24T12:40:12.848Z,15716.00
2018-05-24T12:41:12.849Z,14864.00
2018-05-24T12:42:12.668Z,16684.00
2018-05-24T12:43:12.648Z,18976.00
2018-05-24T12:44:12.533Z,19904.00
2018-05-24T12:45:12.601Z,19840.00
2018-05-24T12:46:12.382Z,20160.00
2018-05-24T12:47:12.365Z,20352.00
2018-05-24T12:48:12.227Z,20576.00
2018-05-24T12:49:12.279Z,21504.00
2018-05-24T12:50:12.122Z,21920.00
2018-05-24T12:51:12.092Z,20800.00
2018-05-24T12:52:11.972Z,19616.00
2018-05-24T12:53:12.014Z,20768.00
2018-05-24T12:54:11.861Z,20512.00
2018-05-24T12:55:12.360Z,20896.00
2018-05-24T12:56:11.684Z,19904.00
2018-05-24T12:58:53.586Z,18752.00
2018-05-24T12:59:53.658Z,19776.00
2018-05-24T13:00:53.477Z,18848.00
2018-05-24T13:01:53.418Z,18272.00
2018-05-24T13:02:53.288Z,16968.00
2018-05-24T13:03:53.333Z,18080.00
2018-05-24T13:04:53.190Z,19168.00
2018-05-24T13:05:53.143Z,18176.00
2018-05-24T13:06:53.094Z,17728.00
2018-05-24T13:07:53.060Z,17024.00
2018-05-24T13:08:52.870Z,16324.00
2018-05-24T13:09:52.874Z,16016.00
2018-05-24T13:10:52.761Z,15648.00
2018-05-24T13:11:55.179Z,16400.00
2018-05-24T13:12:52.586Z,18016.00
2018-05-24T13:13:52.581Z,18656.00
2018-05-24T13:14:52.435Z,19328.00
2018-05-24T13:16:00.346Z,19488.00
2018-05-24T13:16:52.294Z,19008.00
2018-05-24T13:17:52.336Z,18304.00
2018-05-24T13:18:52.144Z,17760.00
2018-05-24T13:19:52.110Z,17376.00
2018-05-24T13:20:52.014Z,16368.00
2018-05-24T13:23:34.103Z,13496.00
2018-05-24T13:24:34.198Z,12444.00
2018-05-24T13:25:33.959Z,11328.00
2018-05-24T13:26:33.961Z,10888.00
2018-05-24T13:27:33.810Z,10464.00
2018-05-24T13:30:16.109Z,10076.00